Time;durP1;ratioP1;P1;durP2;ratioP2;P2;SDS_P1;SDS_P2;PMS_P1;PMS_P2;Temp;Humidity;BMP_temperature;BMP_pressure;BME280_temperature;BME280_humidity;BME280_pressure;Samples;Min_cycle;Max_cycle;Signal;HPM_P1;HPM_P2
2023/05/13 00:00:15;;;;;;;16.58;8.05;;;14.30;99.90;;;;;;4986815;28;20385;-85
2023/05/13 00:02:40;;;;;;;11.60;7.93;;;14.30;99.90;;;;;;5008856;28;20076;-85
2023/05/13 00:05:12;;;;;;;14.23;7.68;;;14.30;99.90;;;;;;4998782;28;20065;-85
2023/05/13 00:07:37;;;;;;;10.18;7.15;;;14.20;99.90;;;;;;5025620;28;20133;-85
2023/05/13 00:10:03;;;;;;;9.35;7.68;;;14.20;99.90;;;;;;5012108;28;20148;-86
2023/05/13 00:12:30;;;;;;;11.50;8.27;;;14.20;99.90;;;;;;5005449;28;20064;-85
2023/05/13 00:14:55;;;;;;;11.45;7.65;;;14.20;99.90;;;;;;4996306;28;20037;-86
2023/05/13 00:17:21;;;;;;;12.18;7.80;;;14.10;99.90;;;;;;5017574;28;20396;-85
2023/05/13 00:19:47;;;;;;;12.25;7.78;;;14.10;99.90;;;;;;5014161;28;20488;-86
2023/05/13 00:22:27;;;;;;;11.00;7.93;;;14.10;99.90;;;;;;5023801;28;20045;-86
2023/05/13 00:24:53;;;;;;;10.50;7.53;;;14.00;99.90;;;;;;5006196;28;20498;-86
2023/05/13 00:27:18;;;;;;;8.38;7.32;;;14.30;99.90;;;;;;5018054;28;20069;-86
2023/05/13 00:29:44;;;;;;;14.57;8.20;;;14.00;99.90;;;;;;4987054;28;20121;-85
2023/05/13 00:32:10;;;;;;;11.85;7.20;;;13.90;99.90;;;;;;5023747;28;20038;-86
2023/05/13 00:34:36;;;;;;;12.48;8.07;;;13.80;99.90;;;;;;5019845;28;20386;-86
2023/05/13 00:37:04;;;;;;;12.57;8.23;;;13.80;99.90;;;;;;5023618;28;20112;-86
2023/05/13 00:39:30;;;;;;;10.93;8.02;;;13.80;99.90;;;;;;5004320;28;20042;-86
2023/05/13 00:41:58;;;;;;;10.15;8.05;;;13.80;99.90;;;;;;5011424;28;20091;-85
2023/05/13 00:44:23;;;;;;;11.95;8.70;;;13.80;99.90;;;;;;5025695;28;20120;-85
2023/05/13 00:46:49;;;;;;;10.85;8.10;;;13.80;99.90;;;;;;5026130;28;20065;-85
2023/05/13 00:49:15;;;;;;;10.80;7.18;;;13.70;99.90;;;;;;5017278;28;20084;-85
2023/05/13 00:51:40;;;;;;;12.55;8.18;;;13.70;99.90;;;;;;5020075;28;20033;-85
2023/05/13 00:54:06;;;;;;;12.82;8.98;;;13.70;99.90;;;;;;4994960;28;20042;-85
2023/05/13 00:56:32;;;;;;;12.73;8.55;;;13.80;99.90;;;;;;5016682;28;20520;-85
2023/05/13 00:59:00;;;;;;;10.18;7.68;;;13.70;99.90;;;;;;5010624;28;20369;-85
2023/05/13 01:01:51;;;;;;;9.95;8.18;;;13.60;99.90;;;;;;5004754;28;20038;-85
2023/05/13 01:04:30;;;;;;;13.50;7.78;;;13.70;99.90;;;;;;5018441;28;20057;-85
2023/05/13 01:07:23;;;;;;;11.57;7.63;;;13.60;99.90;;;;;;4990670;28;20130;-85
2023/05/13 01:10:07;;;;;;;10.90;7.72;;;13.60;99.90;;;;;;5016172;28;20041;-85
2023/05/13 01:12:40;;;;;;;11.65;7.72;;;13.60;99.90;;;;;;4996600;28;20114;-86
2023/05/13 01:15:12;;;;;;;13.50;9.43;;;13.60;99.90;;;;;;5017118;28;20095;-86
2023/05/13 01:17:45;;;;;;;11.05;8.43;;;13.50;99.90;;;;;;5017124;28;20042;-85
2023/05/13 01:20:11;;;;;;;10.35;8.05;;;13.50;99.90;;;;;;5015098;28;20038;-86
2023/05/13 01:22:37;;;;;;;9.82;7.85;;;13.70;99.90;;;;;;4999201;28;20084;-86
2023/05/13 01:25:03;;;;;;;12.68;9.02;;;13.50;99.90;;;;;;5023420;28;20483;-85
2023/05/13 01:27:30;;;;;;;10.98;8.65;;;13.50;99.90;;;;;;5020913;28;20033;-86
2023/05/13 01:29:59;;;;;;;12.77;8.80;;;13.50;99.90;;;;;;5001571;28;20080;-85
2023/05/13 01:32:25;;;;;;;14.52;8.77;;;13.50;99.90;;;;;;5008603;28;20042;-85
2023/05/13 01:34:51;;;;;;;10.85;8.73;;;13.40;99.90;;;;;;5002429;28;20041;-85
2023/05/13 01:37:20;;;;;;;9.75;7.82;;;13.40;99.90;;;;;;4997022;28;20095;-85
2023/05/13 01:39:46;;;;;;;11.38;8.63;;;13.40;99.90;;;;;;5018066;28;20034;-85
2023/05/13 01:42:15;;;;;;;12.73;9.60;;;13.30;99.90;;;;;;5021139;28;20045;-85
2023/05/13 01:44:41;;;;;;;11.43;8.48;;;13.30;99.90;;;;;;5019564;28;20036;-85
2023/05/13 01:47:06;;;;;;;12.27;9.90;;;13.70;99.90;;;;;;5014827;28;20045;-85
2023/05/13 01:49:32;;;;;;;11.90;9.55;;;13.20;99.90;;;;;;5021295;28;20033;-85
2023/05/13 01:51:58;;;;;;;12.40;8.65;;;13.30;99.90;;;;;;5019647;28;20499;-85
2023/05/13 01:54:24;;;;;;;13.98;10.30;;;13.20;99.90;;;;;;5007603;28;20060;-85
2023/05/13 01:56:50;;;;;;;12.30;10.73;;;13.10;99.90;;;;;;4995830;28;20038;-85
2023/05/13 01:59:15;;;;;;;14.80;10.07;;;13.10;99.90;;;;;;5016954;28;20518;-85
2023/05/13 02:01:41;;;;;;;14.30;10.43;;;13.00;99.90;;;;;;5007238;28;20034;-85
2023/05/13 02:04:10;;;;;;;13.25;9.40;;;13.00;99.90;;;;;;4985193;28;20042;-85
2023/05/13 02:06:35;;;;;;;14.88;9.57;;;13.00;99.90;;;;;;5004205;28;20041;-85
2023/05/13 02:09:02;;;;;;;12.25;9.27;;;13.00;99.90;;;;;;4998745;28;20136;-85
2023/05/13 02:11:31;;;;;;;15.55;10.82;;;13.00;99.90;;;;;;5003546;28;20052;-85
2023/05/13 02:13:57;;;;;;;15.05;11.18;;;13.00;99.90;;;;;;5010107;28;20056;-85
2023/05/13 02:16:25;;;;;;;16.20;11.00;;;13.00;99.90;;;;;;5017947;28;20144;-85
2023/05/13 02:18:50;;;;;;;15.20;11.30;;;13.00;99.90;;;;;;5017423;28;20089;-86
2023/05/13 02:21:16;;;;;;;14.23;10.80;;;12.90;99.90;;;;;;5008394;28;20096;-85
2023/05/13 02:23:42;;;;;;;11.75;9.90;;;12.90;99.90;;;;;;5021233;28;20038;-85
2023/05/13 02:26:12;;;;;;;12.43;9.65;;;12.80;99.90;;;;;;5019003;28;20038;-85
2023/05/13 02:28:38;;;;;;;14.02;11.27;;;12.80;99.90;;;;;;5001535;28;20037;-85
2023/05/13 02:31:04;;;;;;;15.75;11.02;;;13.20;99.90;;;;;;5001985;28;20034;-85
2023/05/13 02:33:29;;;;;;;25.88;11.77;;;12.80;99.90;;;;;;4986576;28;20091;-85
2023/05/13 02:35:57;;;;;;;13.98;10.55;;;12.80;99.90;;;;;;4999129;28;20385;-85
2023/05/13 02:38:23;;;;;;;12.25;9.82;;;12.70;99.90;;;;;;5012007;28;20033;-85
2023/05/13 02:40:49;;;;;;;12.15;9.77;;;12.80;99.90;;;;;;5019811;28;20038;-86
2023/05/13 02:43:15;;;;;;;12.02;9.65;;;12.70;99.90;;;;;;5015302;28;20505;-85
2023/05/13 02:45:48;;;;;;;16.00;10.90;;;12.70;99.90;;;;;;5000851;28;20050;-85
2023/05/13 02:48:13;;;;;;;14.32;10.13;;;12.70;99.90;;;;;;5019230;28;20041;-85
2023/05/13 02:50:39;;;;;;;15.25;11.38;;;12.70;99.90;;;;;;5007909;28;20042;-85
2023/05/13 02:53:05;;;;;;;17.05;11.88;;;12.70;99.90;;;;;;5011706;28;20122;-85
2023/05/13 02:55:31;;;;;;;14.77;11.10;;;12.60;99.90;;;;;;4998077;28;20046;-85
2023/05/13 02:57:57;;;;;;;14.18;9.40;;;12.60;99.90;;;;;;5023553;28;20098;-85
2023/05/13 03:00:22;;;;;;;15.48;9.85;;;12.50;99.90;;;;;;5022582;28;20030;-84
2023/05/13 03:02:48;;;;;;;13.40;9.93;;;12.50;99.90;;;;;;5018661;28;20374;-85
2023/05/13 03:05:14;;;;;;;14.55;11.27;;;12.40;99.90;;;;;;5019779;28;20046;-85
2023/05/13 03:07:40;;;;;;;13.45;11.50;;;12.40;99.90;;;;;;5004718;28;20055;-85
2023/05/13 03:10:06;;;;;;;14.95;11.20;;;12.40;99.90;;;;;;5013948;28;20048;-86
2023/05/13 03:12:34;;;;;;;11.90;9.15;;;12.40;99.90;;;;;;4990763;28;20033;-85
2023/05/13 03:15:00;;;;;;;17.70;11.55;;;12.40;99.90;;;;;;5008089;28;20034;-85
2023/05/13 03:17:29;;;;;;;15.30;11.52;;;12.40;99.90;;;;;;4991337;28;20048;-85
2023/05/13 03:19:57;;;;;;;14.30;11.18;;;12.40;99.90;;;;;;5008812;28;20045;-85
2023/05/13 03:22:23;;;;;;;17.30;12.70;;;12.20;99.90;;;;;;5017181;28;20100;-85
2023/05/13 03:24:49;;;;;;;13.77;11.05;;;12.30;99.90;;;;;;5004723;28;20480;-85
2023/05/13 03:27:15;;;;;;;18.33;11.68;;;12.30;99.90;;;;;;5019280;28;20067;-85
2023/05/13 03:29:40;;;;;;;18.13;12.80;;;12.20;99.90;;;;;;5013055;28;20053;-85
2023/05/13 03:32:06;;;;;;;15.40;11.68;;;12.20;99.90;;;;;;5022441;28;20101;-85
2023/05/13 03:34:35;;;;;;;14.95;10.75;;;12.20;99.90;;;;;;5023987;28;20037;-84
2023/05/13 03:37:01;;;;;;;15.25;11.02;;;12.20;99.90;;;;;;5013643;28;20041;-85
2023/05/13 03:39:26;;;;;;;15.48;11.45;;;12.20;99.90;;;;;;5025239;28;20033;-85
2023/05/13 03:41:55;;;;;;;19.02;12.98;;;12.20;99.90;;;;;;5017513;28;20495;-85
2023/05/13 03:44:24;;;;;;;17.67;12.68;;;12.20;99.90;;;;;;4991494;28;20121;-85
2023/05/13 03:46:49;;;;;;;18.17;13.32;;;12.20;99.90;;;;;;5007535;28;20049;-85
2023/05/13 03:49:15;;;;;;;19.02;13.68;;;12.10;99.90;;;;;;4984933;28;20057;-85
2023/05/13 03:51:40;;;;;;;15.63;11.73;;;12.10;99.90;;;;;;5002672;28;20050;-85
2023/05/13 03:54:09;;;;;;;13.93;10.80;;;12.30;99.90;;;;;;5004871;28;20076;-85
2023/05/13 03:56:35;;;;;;;15.95;12.38;;;12.40;99.90;;;;;;5001692;28;20123;-85
2023/05/13 03:59:04;;;;;;;16.23;11.27;;;12.00;99.90;;;;;;5007207;28;20034;-85
2023/05/13 04:01:29;;;;;;;14.57;11.88;;;12.00;99.90;;;;;;5003037;28;20045;-85
2023/05/13 04:03:55;;;;;;;14.98;12.77;;;12.00;99.90;;;;;;4996582;28;20051;-85
2023/05/13 04:06:21;;;;;;;11.90;10.23;;;12.00;99.90;;;;;;5016103;28;20046;-84
2023/05/13 04:08:48;;;;;;;21.92;14.02;;;12.10;99.90;;;;;;5000465;28;20100;-85
2023/05/13 04:11:13;;;;;;;18.95;14.55;;;12.00;99.90;;;;;;5023167;28;20049;-85
2023/05/13 04:13:39;;;;;;;16.55;12.77;;;12.00;99.90;;;;;;5001074;28;20625;-85
2023/05/13 04:16:05;;;;;;;20.98;14.38;;;12.00;99.90;;;;;;5017646;28;20320;-85
2023/05/13 04:18:32;;;;;;;19.45;13.48;;;12.00;99.90;;;;;;5005159;28;20045;-85
2023/05/13 04:20:58;;;;;;;14.38;12.05;;;12.20;99.90;;;;;;5000548;28;20495;-85
2023/05/13 04:23:23;;;;;;;16.58;13.40;;;11.90;99.90;;;;;;5007197;28;20041;-84
2023/05/13 04:25:51;;;;;;;16.98;12.50;;;11.90;99.90;;;;;;4982433;28;20506;-85
2023/05/13 04:28:17;;;;;;;16.60;13.00;;;11.90;99.90;;;;;;5022331;28;20041;-85
2023/05/13 04:30:43;;;;;;;18.95;12.65;;;12.00;99.90;;;;;;5004248;28;20053;-85
2023/05/13 04:33:09;;;;;;;13.20;10.02;;;12.00;99.90;;;;;;5017028;28;20045;-85
2023/05/13 04:35:34;;;;;;;13.30;11.52;;;12.10;99.90;;;;;;5001765;28;20748;-84
2023/05/13 04:38:00;;;;;;;14.35;11.55;;;12.00;99.90;;;;;;5014109;28;20119;-85
2023/05/13 04:40:28;;;;;;;14.30;10.27;;;12.00;99.90;;;;;;5002227;28;20116;-85
2023/05/13 04:42:53;;;;;;;14.80;11.07;;;12.00;99.90;;;;;;5000365;28;20355;-85
2023/05/13 04:45:25;;;;;;;13.82;10.90;;;12.10;99.90;;;;;;4990410;28;20129;-85
2023/05/13 04:47:51;;;;;;;15.48;11.75;;;12.00;99.90;;;;;;5016131;28;20040;-85
2023/05/13 04:50:16;;;;;;;16.42;11.90;;;12.10;99.90;;;;;;4994045;28;20045;-85
2023/05/13 04:52:43;;;;;;;17.67;11.90;;;12.10;99.90;;;;;;5009073;28;20045;-85
2023/05/13 04:55:09;;;;;;;17.00;12.48;;;12.10;99.90;;;;;;5008456;28;20405;-85
2023/05/13 04:57:35;;;;;;;15.63;12.25;;;12.10;99.90;;;;;;5018763;28;20057;-85
2023/05/13 05:00:02;;;;;;;20.48;11.90;;;12.10;99.90;;;;;;5025319;28;20029;-85
2023/05/13 05:02:31;;;;;;;13.68;10.73;;;12.10;99.90;;;;;;5017965;28;20504;-85
2023/05/13 05:04:57;;;;;;;20.90;12.68;;;12.10;99.90;;;;;;4997740;28;20071;-84
2023/05/13 05:07:22;;;;;;;11.43;9.32;;;12.20;99.90;;;;;;5014071;28;20496;-85
2023/05/13 05:09:48;;;;;;;15.68;11.70;;;12.10;99.90;;;;;;5004043;28;20046;-85
2023/05/13 05:12:23;;;;;;;14.80;11.07;;;12.30;99.90;;;;;;4992661;28;20047;-84
2023/05/13 05:14:48;;;;;;;;;;;12.20;99.90;;;;;;4997122;28;20132;-84
2023/05/13 05:17:15;;;;;;;14.98;9.82;;;12.00;99.90;;;;;;4990617;28;20387;-85
2023/05/13 05:19:40;;;;;;;15.98;10.77;;;12.20;99.90;;;;;;5014872;28;20037;-85
2023/05/13 05:22:11;;;;;;;13.60;9.90;;;12.20;99.90;;;;;;4996429;28;20141;-85
2023/05/13 05:24:37;;;;;;;13.25;9.90;;;12.30;99.90;;;;;;4991419;28;20076;-85
2023/05/13 05:27:06;;;;;;;16.05;11.63;;;12.30;99.90;;;;;;4992409;28;20046;-85
2023/05/13 05:29:31;;;;;;;15.75;10.32;;;12.30;99.90;;;;;;4989165;28;20065;-85
2023/05/13 05:31:57;;;;;;;14.38;9.02;;;12.30;99.90;;;;;;5017194;28;20045;-84
2023/05/13 05:34:23;;;;;;;15.00;10.25;;;12.30;99.90;;;;;;5009908;28;20044;-85
2023/05/13 05:36:49;;;;;;;16.02;10.75;;;12.30;99.90;;;;;;5011724;28;20045;-85
2023/05/13 05:39:15;;;;;;;14.13;10.38;;;12.30;99.90;;;;;;5009851;28;20049;-84
2023/05/13 05:41:40;;;;;;;15.02;10.18;;;12.30;99.90;;;;;;5004147;28;20473;-85
2023/05/13 05:44:06;;;;;;;11.30;8.90;;;12.60;99.90;;;;;;4996310;28;20456;-85
2023/05/13 05:46:32;;;;;;;13.40;9.55;;;12.40;99.90;;;;;;5018904;28;20029;-85
2023/05/13 05:48:58;;;;;;;14.82;9.07;;;12.40;99.90;;;;;;4991683;28;20084;-87
2023/05/13 05:51:24;;;;;;;14.93;10.95;;;12.40;99.90;;;;;;4993076;28;20041;-85
2023/05/13 05:53:50;;;;;;;16.60;10.32;;;12.40;99.90;;;;;;5016462;28;20565;-85
2023/05/13 05:56:15;;;;;;;12.18;9.18;;;12.90;99.90;;;;;;5005970;28;20041;-86
2023/05/13 05:58:41;;;;;;;15.25;9.73;;;12.50;99.90;;;;;;4990008;28;21500;-86
2023/05/13 06:01:07;;;;;;;15.80;9.57;;;12.50;99.90;;;;;;5016825;28;20036;-82
2023/05/13 06:03:33;;;;;;;19.48;10.75;;;12.60;99.90;;;;;;5019668;28;20087;-90
2023/05/13 06:05:59;;;;;;;12.57;8.90;;;12.60;99.90;;;;;;5028324;28;20044;-91
2023/05/13 06:08:28;;;;;;;14.95;9.40;;;12.60;99.90;;;;;;5014524;28;20041;-89
2023/05/13 06:10:58;;;;;;;19.88;10.02;;;12.60;99.90;;;;;;5020169;28;20033;-91
2023/05/13 06:13:25;;;;;;;13.85;9.32;;;12.70;99.90;;;;;;5007518;28;20045;-92
2023/05/13 06:15:53;;;;;;;14.38;11.00;;;12.70;99.90;;;;;;5032558;28;20481;-89
2023/05/13 06:18:19;;;;;;;15.90;10.55;;;12.70;99.90;;;;;;5000133;28;20049;-91
2023/05/13 06:20:45;;;;;;;14.55;10.00;;;12.80;99.90;;;;;;5004718;28;20073;-90
2023/05/13 06:23:13;;;;;;;16.13;9.43;;;12.80;99.90;;;;;;5029652;28;20042;-90
2023/05/13 06:25:38;;;;;;;12.40;9.98;;;12.90;99.90;;;;;;5026197;28;20528;-91
2023/05/13 06:28:05;;;;;;;14.63;10.13;;;12.90;99.90;;;;;;5016594;28;20049;-95
2023/05/13 06:30:33;;;;;;;15.98;9.20;;;13.00;99.90;;;;;;5021674;28;20132;-92
2023/05/13 06:32:59;;;;;;;15.88;9.60;;;13.00;99.90;;;;;;4993545;28;20415;-89
2023/05/13 06:35:27;;;;;;;12.95;10.40;;;13.00;99.90;;;;;;5016642;28;20042;-95
2023/05/13 06:37:53;;;;;;;15.05;10.02;;;13.10;99.90;;;;;;5015039;28;20488;-94
2023/05/13 06:40:22;;;;;;;13.98;9.60;;;13.10;99.90;;;;;;5035486;28;20085;-96
2023/05/13 06:43:08;;;;;;;16.10;9.40;;;13.10;99.90;;;;;;5086247;22;20050;-95
2023/05/13 06:46:07;;;;;;;;;;;;;;;;;;;;;
2023/05/13 06:49:09;;;;;;;13.85;9.20;;;13.30;99.90;;;;;;5121428;22;20079;-87
2023/05/13 06:51:35;;;;;;;12.95;8.82;;;13.50;99.90;;;;;;5134030;23;20519;-95
2023/05/13 06:54:07;;;;;;;14.90;9.30;;;13.40;99.90;;;;;;5223642;23;20125;-95
2023/05/13 06:56:50;;;;;;;13.40;8.95;;;13.50;99.90;;;;;;5123324;23;20041;-96
2023/05/13 06:59:20;;;;;;;9.73;7.93;;;13.30;99.90;;;;;;5017565;28;20074;-96
2023/05/13 07:01:46;;;;;;;11.80;8.52;;;13.60;99.90;;;;;;5006154;28;20045;-91
2023/05/13 07:04:21;;;;;;;14.18;9.20;;;13.40;99.90;;;;;;5009729;28;20405;-92
2023/05/13 07:06:47;;;;;;;11.82;8.30;;;13.80;99.90;;;;;;4998146;28;20038;-92
2023/05/13 07:09:13;;;;;;;13.68;8.23;;;13.80;99.90;;;;;;5084302;22;20055;-96
2023/05/13 07:11:42;;;;;;;11.88;8.05;;;13.80;99.90;;;;;;5359498;22;20046;-92
2023/05/13 07:14:09;;;;;;;12.60;7.53;;;14.00;99.90;;;;;;4991115;28;20081;-91
2023/05/13 07:16:35;;;;;;;9.85;7.32;;;14.60;99.90;;;;;;4961771;28;20473;-88
2023/05/13 07:19:01;;;;;;;15.35;7.38;;;14.30;99.90;;;;;;4993577;28;20069;-93
2023/05/13 07:24:05;;;;;;;11.85;7.13;;;14.80;99.90;;;;;;5510642;22;20053;-86
2023/05/13 07:26:37;;;;;;;12.55;6.75;;;15.00;99.90;;;;;;4994802;28;20049;-88
2023/05/13 07:29:04;;;;;;;8.93;6.53;;;15.40;99.90;;;;;;5001924;28;20037;-87
2023/05/13 07:31:30;;;;;;;9.38;5.80;;;15.60;99.90;;;;;;5050902;23;20081;-88
2023/05/13 07:33:58;;;;;;;13.88;6.18;;;15.90;99.90;;;;;;4983176;28;20134;-87
2023/05/13 07:36:24;;;;;;;13.18;6.22;;;16.10;99.90;;;;;;4982156;28;20252;-88
2023/05/13 07:38:56;;;;;;;9.93;5.95;;;16.30;99.90;;;;;;4986412;28;20046;-88
2023/05/13 07:41:26;;;;;;;10.13;6.15;;;16.50;99.90;;;;;;4982629;28;20046;-86
2023/05/13 07:43:52;;;;;;;9.02;6.63;;;16.60;99.90;;;;;;4970974;28;20038;-86
2023/05/13 07:46:21;;;;;;;14.23;6.13;;;16.70;99.90;;;;;;4987856;28;20058;-86
2023/05/13 07:48:50;;;;;;;11.82;6.35;;;16.90;99.90;;;;;;4983374;28;20065;-88
2023/05/13 07:51:18;;;;;;;9.48;6.35;;;16.90;99.90;;;;;;4973822;28;20074;-87
2023/05/13 07:53:47;;;;;;;10.20;5.95;;;17.10;99.90;;;;;;4991224;28;20128;-88
2023/05/13 07:56:13;;;;;;;12.73;6.60;;;17.20;99.90;;;;;;4987428;28;20046;-87
2023/05/13 07:58:39;;;;;;;12.15;6.25;;;17.30;99.90;;;;;;4973789;28;20038;-87
2023/05/13 08:01:11;;;;;;;12.93;5.75;;;17.30;99.90;;;;;;4995268;28;20069;-87
2023/05/13 08:03:37;;;;;;;13.38;5.90;;;18.00;99.90;;;;;;4983570;28;20038;-88
2023/05/13 08:06:12;;;;;;;9.15;5.97;;;17.50;99.90;;;;;;4993080;28;20105;-95
2023/05/13 08:08:38;;;;;;;9.43;5.68;;;17.60;99.90;;;;;;5006736;28;20026;-96
2023/05/13 08:11:09;;;;;;;12.18;5.93;;;17.70;99.90;;;;;;5003656;28;20042;-96
2023/05/13 08:13:35;;;;;;;9.15;5.43;;;17.60;99.90;;;;;;5002850;28;20583;-95
2023/05/13 08:16:02;;;;;;;8.63;5.25;;;17.70;99.90;;;;;;4998775;28;20035;-96
2023/05/13 08:18:28;;;;;;;7.25;5.03;;;17.70;99.90;;;;;;4999592;28;20571;-95
2023/05/13 08:20:54;;;;;;;10.85;5.90;;;17.50;99.90;;;;;;5001158;28;20101;-96
2023/05/13 08:23:20;;;;;;;10.82;5.53;;;17.90;99.90;;;;;;4995407;28;20069;-96
2023/05/13 08:25:46;;;;;;;9.00;5.78;;;18.00;99.90;;;;;;4999875;28;20039;-96
2023/05/13 08:28:12;;;;;;;11.52;6.28;;;18.00;99.90;;;;;;4978011;28;20490;-96
2023/05/13 08:30:42;;;;;;;11.65;5.10;;;18.10;99.90;;;;;;4991769;28;20038;-93
2023/05/13 08:33:10;;;;;;;10.50;6.72;;;17.90;99.90;;;;;;5015715;28;20064;-94
2023/05/13 08:35:36;;;;;;;8.45;5.55;;;18.30;99.90;;;;;;5001877;28;20090;-96
2023/05/13 08:38:05;;;;;;;9.65;6.22;;;18.40;99.90;;;;;;5000978;28;20038;-96
2023/05/13 08:40:37;;;;;;;12.48;5.65;;;18.50;99.90;;;;;;4987645;28;20042;-96
2023/05/13 08:43:05;;;;;;;9.70;6.40;;;18.60;99.90;;;;;;5195927;22;20052;-93
2023/05/13 08:45:38;;;;;;;8.98;5.50;;;18.70;99.90;;;;;;5025533;28;20516;-96
2023/05/13 08:48:05;;;;;;;10.38;5.70;;;19.10;99.90;;;;;;5030330;28;20048;-95
2023/05/13 08:50:33;;;;;;;9.57;5.55;;;19.30;99.90;;;;;;5093063;23;20068;-95
2023/05/13 08:53:15;;;;;;;29.33;7.25;;;19.00;99.90;;;;;;5025695;28;20118;-96
2023/05/13 08:55:46;;;;;;;9.05;5.72;;;19.10;99.90;;;;;;4996315;28;20084;-96
2023/05/13 08:58:18;;;;;;;8.18;4.90;;;19.30;99.90;;;;;;5012699;28;20102;-94
2023/05/13 09:00:48;;;;;;;9.10;5.78;;;19.40;99.90;;;;;;5062420;23;20148;-96
2023/05/13 09:03:17;;;;;;;12.60;6.00;;;19.50;99.90;;;;;;5041615;28;20117;-96
2023/05/13 09:05:44;;;;;;;12.35;5.03;;;19.40;99.90;;;;;;5037259;28;20183;-94
2023/05/13 09:08:17;;;;;;;10.45;4.57;;;19.80;99.90;;;;;;5049278;22;20037;-95
2023/05/13 09:10:46;;;;;;;11.10;4.82;;;19.90;99.90;;;;;;5009513;28;20057;-95
2023/05/13 09:13:16;;;;;;;10.98;3.83;;;20.00;99.90;;;;;;4996658;28;20096;-96
2023/05/13 09:15:43;;;;;;;7.97;3.58;;;20.10;99.90;;;;;;5025673;28;20037;-95
2023/05/13 09:18:22;;;;;;;7.65;4.07;;;20.30;99.90;;;;;;5019401;28;20046;-96
2023/05/13 09:20:49;;;;;;;6.97;3.67;;;20.40;99.90;;;;;;5012635;28;20054;-94
2023/05/13 09:23:16;;;;;;;6.70;3.17;;;20.40;99.90;;;;;;5004206;28;20046;-95
2023/05/13 09:25:42;;;;;;;8.45;3.35;;;20.50;99.90;;;;;;5015417;28;20054;-94
2023/05/13 09:28:12;;;;;;;7.88;3.75;;;20.60;99.90;;;;;;4997229;28;20049;-95
2023/05/13 09:30:41;;;;;;;7.50;3.97;;;20.70;99.90;;;;;;5018482;28;20042;-95
2023/05/13 09:33:21;;;;;;;8.85;4.05;;;20.80;99.90;;;;;;5011022;28;20472;-95
2023/05/13 09:36:02;;;;;;;6.28;3.25;;;20.90;99.90;;;;;;5038050;28;20037;-95
2023/05/13 09:38:36;;;;;;;5.32;3.72;;;20.80;99.90;;;;;;5033075;28;20069;-93
2023/05/13 09:41:02;;;;;;;9.40;3.13;;;21.20;99.90;;;;;;4986080;28;20038;-92
2023/05/13 09:43:33;;;;;;;11.15;4.32;;;21.10;99.90;;;;;;5015099;28;20045;-94
2023/05/13 09:46:05;;;;;;;6.47;3.30;;;21.20;99.90;;;;;;4988529;28;20100;-92
2023/05/13 09:48:42;;;;;;;8.80;3.70;;;21.30;99.90;;;;;;4989922;28;20042;-92
2023/05/13 09:51:10;;;;;;;8.63;4.28;;;21.40;99.90;;;;;;4985509;28;20058;-91
2023/05/13 09:53:45;;;;;;;13.90;3.92;;;21.50;99.90;;;;;;4985719;28;20037;-92
2023/05/13 09:56:22;;;;;;;7.30;3.33;;;21.50;99.90;;;;;;4992192;28;20058;-92
2023/05/13 09:58:52;;;;;;;7.68;3.65;;;21.60;99.90;;;;;;4989891;28;20039;-92
2023/05/13 10:01:23;;;;;;;9.25;4.28;;;21.70;99.90;;;;;;4996829;28;20046;-92
2023/05/13 10:03:49;;;;;;;12.93;4.60;;;21.80;99.90;;;;;;4981158;28;20037;-90
2023/05/13 10:06:22;;;;;;;21.88;7.05;;;21.80;99.90;;;;;;4986723;28;20050;-90
2023/05/13 10:08:50;;;;;;;14.93;3.33;;;21.80;99.90;;;;;;5009679;28;20046;-90
2023/05/13 10:11:18;;;;;;;8.48;3.28;;;21.90;99.50;;;;;;4991148;28;20049;-90
2023/05/13 10:13:49;;;;;;;8.30;3.33;;;22.00;99.80;;;;;;4991416;28;20105;-90
2023/05/13 10:16:17;;;;;;;11.52;3.58;;;22.00;99.20;;;;;;4984397;28;20033;-90
2023/05/13 10:18:46;;;;;;;9.18;4.15;;;22.10;99.50;;;;;;5011438;28;20052;-92
2023/05/13 10:21:13;;;;;;;9.40;4.43;;;22.20;99.90;;;;;;5001177;28;20069;-93
2023/05/13 10:23:39;;;;;;;8.35;3.88;;;22.30;99.90;;;;;;4983503;28;20030;-88
2023/05/13 10:26:06;;;;;;;8.35;3.38;;;22.30;99.90;;;;;;4994568;28;20041;-89
2023/05/13 10:28:33;;;;;;;8.88;3.42;;;22.40;99.50;;;;;;4985505;28;20031;-87
2023/05/13 10:30:58;;;;;;;6.13;3.25;;;22.40;98.00;;;;;;5010746;28;20030;-93
2023/05/13 10:33:26;;;;;;;7.05;3.70;;;22.40;97.80;;;;;;4985975;28;20764;-87
2023/05/13 10:36:10;;;;;;;8.30;4.00;;;22.40;98.20;;;;;;5008818;28;20117;-94
2023/05/13 10:39:03;;;;;;;10.15;4.10;;;22.60;99.20;;;;;;5009333;28;20485;-87
2023/05/13 10:41:48;;;;;;;6.43;4.03;;;22.60;99.90;;;;;;4972167;28;20034;-89
2023/05/13 10:44:20;;;;;;;11.15;4.20;;;22.70;99.80;;;;;;4978783;28;20098;-89
2023/05/13 10:46:47;;;;;;;7.63;4.53;;;22.90;99.20;;;;;;5006921;28;20049;-91
2023/05/13 10:49:16;;;;;;;10.70;4.25;;;22.90;99.60;;;;;;4992936;28;20042;-92
2023/05/13 10:51:47;;;;;;;7.63;3.90;;;22.90;98.90;;;;;;5004763;28;20089;-91
2023/05/13 10:54:23;;;;;;;7.90;3.70;;;23.00;98.60;;;;;;4985089;28;20107;-90
2023/05/13 10:57:01;;;;;;;8.25;3.42;;;23.00;97.10;;;;;;4986855;28;20129;-90
2023/05/13 10:59:29;;;;;;;6.90;4.05;;;23.10;98.60;;;;;;5001380;28;20042;-94
2023/05/13 11:02:19;;;;;;;10.65;3.85;;;23.10;98.10;;;;;;4983378;28;20057;-88
2023/05/13 11:04:58;;;;;;;10.93;4.25;;;23.20;98.30;;;;;;4990190;28;20073;-88
2023/05/13 11:07:28;;;;;;;7.18;3.65;;;23.30;98.30;;;;;;4987955;28;20065;-89
2023/05/13 11:09:53;;;;;;;7.35;3.97;;;23.30;98.20;;;;;;4968523;28;20055;-88
2023/05/13 11:12:19;;;;;;;8.68;4.10;;;23.40;98.70;;;;;;4977704;28;20070;-88
2023/05/13 11:14:45;;;;;;;7.10;4.22;;;23.50;99.00;;;;;;4951690;28;20054;-88
2023/05/13 11:17:11;;;;;;;7.80;3.90;;;23.60;98.60;;;;;;4966017;28;20545;-89
2023/05/13 11:19:45;;;;;;;8.05;3.30;;;23.60;98.30;;;;;;4960792;28;20045;-87
2023/05/13 11:22:20;;;;;;;6.97;3.75;;;23.60;96.80;;;;;;4956745;28;20051;-87
2023/05/13 11:25:05;;;;;;;7.28;3.03;;;23.70;97.10;;;;;;4974265;28;20109;-86
2023/05/13 11:27:38;;;;;;;7.97;3.55;;;23.80;96.60;;;;;;4963102;28;20059;-89
2023/05/13 11:30:28;;;;;;;10.10;3.20;;;23.80;95.50;;;;;;4963359;28;20035;-89
2023/05/13 11:32:55;;;;;;;8.73;3.00;;;23.80;95.20;;;;;;4963465;28;20059;-92
2023/05/13 11:35:25;;;;;;;6.07;3.00;;;23.90;95.30;;;;;;4967143;28;20035;-92
2023/05/13 11:37:52;;;;;;;7.82;3.00;;;23.90;95.00;;;;;;4977888;28;20062;-94
2023/05/13 11:40:28;;;;;;;12.52;2.97;;;24.00;94.70;;;;;;4973094;28;20103;-93
2023/05/13 11:42:54;;;;;;;7.07;2.80;;;24.10;92.90;;;;;;4973629;28;20470;-91
2023/05/13 11:45:21;;;;;;;9.20;2.78;;;24.20;93.40;;;;;;4958107;28;20073;-92
2023/05/13 11:47:47;;;;;;;9.88;3.17;;;24.20;93.40;;;;;;4968130;28;20110;-91
2023/05/13 11:50:20;;;;;;;11.77;2.60;;;24.30;93.20;;;;;;4964051;28;20469;-93
2023/05/13 11:52:51;;;;;;;6.72;2.30;;;24.40;93.00;;;;;;4968724;28;20042;-91
2023/05/13 11:55:37;;;;;;;8.07;2.83;;;24.40;92.30;;;;;;4967012;28;20046;-91
2023/05/13 11:58:03;;;;;;;6.63;3.13;;;24.50;92.30;;;;;;4961893;28;20082;-91
2023/05/13 12:00:30;;;;;;;16.08;3.35;;;24.50;92.50;;;;;;4965060;28;20089;-91
2023/05/13 12:02:57;;;;;;;9.10;3.20;;;24.50;92.50;;;;;;4963301;28;20482;-93
2023/05/13 12:05:23;;;;;;;6.90;2.28;;;24.60;92.60;;;;;;4968612;28;20078;-92
2023/05/13 12:07:50;;;;;;;7.95;2.97;;;24.70;92.80;;;;;;4962081;28;20494;-93
2023/05/13 12:10:16;;;;;;;10.80;3.30;;;24.80;93.10;;;;;;4975776;28;20054;-90
2023/05/13 12:12:44;;;;;;;8.18;2.88;;;24.80;92.80;;;;;;4987003;28;20129;-91
2023/05/13 12:15:12;;;;;;;10.63;3.20;;;24.80;92.70;;;;;;4988699;28;20293;-91
2023/05/13 12:17:38;;;;;;;10.30;3.40;;;24.60;93.20;;;;;;4986803;28;20469;-93
2023/05/13 12:20:05;;;;;;;7.05;3.00;;;24.50;93.80;;;;;;4992187;28;21468;-95
2023/05/13 12:22:33;;;;;;;6.88;2.95;;;24.60;93.00;;;;;;4983003;28;20046;-88
2023/05/13 12:25:01;;;;;;;10.80;3.10;;;24.70;92.70;;;;;;4989161;28;20523;-89
2023/05/13 12:27:27;;;;;;;6.88;3.08;;;24.80;92.60;;;;;;4987427;28;20038;-93
2023/05/13 12:29:58;;;;;;;8.13;3.17;;;24.90;92.30;;;;;;4969933;28;20078;-91
2023/05/13 12:32:24;;;;;;;9.68;4.18;;;25.10;92.30;;;;;;4992121;28;20046;-92
2023/05/13 12:34:50;;;;;;;8.70;3.40;;;25.00;93.10;;;;;;4988731;28;20125;-95
2023/05/13 12:37:16;;;;;;;10.07;3.90;;;24.80;93.90;;;;;;5005447;28;20591;-94
2023/05/13 12:39:43;;;;;;;6.35;3.85;;;24.60;94.60;;;;;;4986653;28;20034;-93
2023/05/13 12:42:16;;;;;;;7.00;3.72;;;24.50;94.60;;;;;;4993618;28;20042;-91
2023/05/13 12:44:44;;;;;;;5.45;3.30;;;24.50;94.80;;;;;;4989551;28;20034;-94
2023/05/13 12:47:11;;;;;;;5.85;3.60;;;24.50;94.10;;;;;;4983271;28;20050;-92